MST,Max TemperatureF,Mean TemperatureF,Min TemperatureF,Max Dew PointF,MeanDew PointF,Min DewpointF,Max Humidity, Mean Humidity, Min Humidity, Max Sea Level PressureIn, Mean Sea Level PressureIn, Min Sea Level PressureIn, Max VisibilityMiles, Mean VisibilityMiles, Min VisibilityMiles, Max Wind SpeedMPH, Mean Wind SpeedMPH, Max Gust SpeedMPH,PrecipitationIn, CloudCover, Events, WindDirDegrees
2011-11-1,43,37,30,29,23,20,78,59,40,30.51,30.26,30.08,10,10,10,17,7,22,T,5,,324
2011-11-2,45,35,24,23,17,11,84,56,27,30.52,30.38,30.14,10,10,10,29,17,35,0.00,0,,230
2011-11-3,49,43,36,22,15,9,45,35,24,30.10,29.88,29.72,10,10,10,29,16,35,0.00,2,,236
2011-11-4,56,44,31,24,22,17,63,44,24,29.73,29.62,29.50,10,10,10,20,8,24,0.00,1,,287
2011-11-5,34,31,28,28,26,20,100,78,56,29.78,29.62,29.54,10,4,1,12,5,15,0.35,8,Snow,312
2011-11-6,34,27,20,26,19,13,92,76,59,30.11,29.90,29.69,10,10,3,24,9,29,0.00,2,,229
2011-11-7,35,25,15,23,18,13,92,74,56,30.21,30.15,30.02,10,10,10,15,10,17,0.00,0,,213
2011-11-8,45,34,22,23,20,17,92,65,37,30.41,30.25,30.06,10,10,10,23,14,29,0.00,2,,247
2011-11-9,43,34,24,22,19,17,74,57,39,30.55,30.44,30.31,10,10,10,17,11,20,0.00,1,,230
2011-11-10,48,40,32,19,18,16,54,42,29,30.28,30.03,29.85,10,10,10,25,17,33,0.00,2,,242
2011-11-11,60,51,41,18,15,11,38,27,15,29.87,29.63,29.36,10,10,10,28,18,36,0.00,2,,240
2011-11-12,51,43,35,32,22,13,82,52,22,29.47,29.39,29.32,10,10,10,37,14,46,0.02,6,,273
2011-11-13,50,42,34,23,18,15,56,41,26,29.53,29.42,29.33,10,10,10,39,19,48,0.00,4,,267
2011-11-14,49,38,27,31,22,11,78,51,23,29.73,29.54,29.43,10,9,3,44,17,55,T,6,Snow,303
2011-11-15,34,28,22,21,10,1,75,51,26,30.19,30.01,29.76,10,10,10,32,12,39,T,5,,309
2011-11-16,37,29,20,15,6,0,68,45,22,30.35,30.24,30.05,10,10,10,24,14,30,T,2,,249
2011-11-17,54,42,30,28,15,3,59,44,28,30.00,29.69,29.51,10,10,10,33,18,39,T,5,,266
2011-11-18,34,22,9,27,15,5,92,75,58,29.92,29.76,29.63,10,8,1,23,13,26,0.01,8,Snow,47
2011-11-19,12,7,1,5,1,-2,91,76,61,30.16,30.02,29.81,10,7,0,20,5,23,0.08,5,Fog-Snow,18
2011-11-20,30,16,1,14,8,-1,87,69,50,30.12,30.06,29.90,10,10,10,23,11,25,0.00,0,,232
2011-11-21,39,25,10,24,16,7,84,69,54,30.07,30.01,29.91,10,10,10,20,12,23,0.00,1,,224
2011-11-22,50,42,33,28,24,21,61,50,39,30.01,29.93,29.84,10,10,10,32,15,38,0.00,1,,237
2011-11-23,62,51,40,28,26,23,57,41,25,29.93,29.81,29.70,10,10,10,22,12,28,0.00,1,,233
2011-11-24,59,47,34,29,24,21,64,44,23,29.72,29.69,29.65,10,10,10,16,9,21,0.00,2,,243
2011-11-25,49,40,31,27,16,3,59,41,23,30.43,29.90,29.63,10,10,10,41,19,53,0.00,2,,276
2011-11-26,41,34,26,10,8,5,46,35,23,30.64,30.52,30.38,10,10,10,30,19,38,0.00,0,,248
2011-11-27,54,44,34,18,12,6,32,26,19,30.35,30.12,29.94,10,10,10,32,22,41,0.00,0,,241
2011-11-28,54,42,30,27,22,14,66,44,22,30.31,30.21,29.96,10,10,10,18,10,23,0.00,1,,141
2011-11-29,52,41,30,27,24,23,78,57,35,30.25,30.14,29.95,10,10,10,23,12,23,0.00,4,,237
2011-11-30,45,36,26,32,24,19,85,62,39,30.63,30.13,29.81,10,10,9,39,14,47,T,7,Rain-Snow,332